sensor_id;sensor_type;location;lat;lon;timestamp;temperature;humidity
69031;DHT22;56083;48.774;8.942;2023-03-01T00:01:31;-3.50;99.90
69031;DHT22;56083;48.774;8.942;2023-03-01T00:03:58;-3.50;99.90
69031;DHT22;56083;48.774;8.942;2023-03-01T00:06:24;-3.50;99.90
69031;DHT22;56083;48.774;8.942;2023-03-01T00:08:50;-3.50;99.90
69031;DHT22;56083;48.774;8.942;2023-03-01T00:13:46;-3.50;99.90
69031;DHT22;56083;48.774;8.942;2023-03-01T00:16:15;-3.50;99.90
69031;DHT22;56083;48.774;8.942;2023-03-01T00:18:40;-3.60;99.90
69031;DHT22;56083;48.774;8.942;2023-03-01T00:21:06;-3.70;99.90
69031;DHT22;56083;48.774;8.942;2023-03-01T00:23:34;-3.70;99.90
69031;DHT22;56083;48.774;8.942;2023-03-01T00:26:00;-3.70;99.90
69031;DHT22;56083;48.774;8.942;2023-03-01T00:28:26;-3.70;99.90
69031;DHT22;56083;48.774;8.942;2023-03-01T00:30:52;-3.70;99.90
69031;DHT22;56083;48.774;8.942;2023-03-01T00:33:18;-3.70;99.90
69031;DHT22;56083;48.774;8.942;2023-03-01T00:35:43;-3.60;99.90
69031;DHT22;56083;48.774;8.942;2023-03-01T00:38:09;-3.60;99.90
69031;DHT22;56083;48.774;8.942;2023-03-01T00:40:36;-3.70;99.90
69031;DHT22;56083;48.774;8.942;2023-03-01T00:43:02;-3.70;99.90
69031;DHT22;56083;48.774;8.942;2023-03-01T00:45:29;-3.70;99.90
69031;DHT22;56083;48.774;8.942;2023-03-01T00:47:56;-3.70;99.90
69031;DHT22;56083;48.774;8.942;2023-03-01T00:50:23;-3.70;99.90
69031;DHT22;56083;48.774;8.942;2023-03-01T00:52:53;-3.70;99.90
69031;DHT22;56083;48.774;8.942;2023-03-01T00:55:19;-3.70;99.90
69031;DHT22;56083;48.774;8.942;2023-03-01T00:57:44;-3.80;99.90
69031;DHT22;56083;48.774;8.942;2023-03-01T01:00:11;-3.90;99.90
69031;DHT22;56083;48.774;8.942;2023-03-01T01:02:37;-3.90;99.90
69031;DHT22;56083;48.774;8.942;2023-03-01T01:05:03;-3.90;99.90
69031;DHT22;56083;48.774;8.942;2023-03-01T01:07:29;-4.00;99.90
69031;DHT22;56083;48.774;8.942;2023-03-01T01:09:55;-4.00;99.90
69031;DHT22;56083;48.774;8.942;2023-03-01T01:12:21;-4.10;99.90
69031;DHT22;56083;48.774;8.942;2023-03-01T01:14:46;-4.00;99.90
69031;DHT22;56083;48.774;8.942;2023-03-01T01:17:12;-4.00;99.90
69031;DHT22;56083;48.774;8.942;2023-03-01T01:19:37;-4.10;99.90
69031;DHT22;56083;48.774;8.942;2023-03-01T01:22:03;-4.10;99.90
69031;DHT22;56083;48.774;8.942;2023-03-01T01:24:29;-4.10;99.90
69031;DHT22;56083;48.774;8.942;2023-03-01T01:26:55;-4.10;99.90
69031;DHT22;56083;48.774;8.942;2023-03-01T01:29:21;-4.10;99.90
69031;DHT22;56083;48.774;8.942;2023-03-01T01:31:47;-4.00;99.90
69031;DHT22;56083;48.774;8.942;2023-03-01T01:34:18;-4.00;99.90
69031;DHT22;56083;48.774;8.942;2023-03-01T01:36:48;-4.00;99.90
69031;DHT22;56083;48.774;8.942;2023-03-01T01:39:14;-4.10;99.90
69031;DHT22;56083;48.774;8.942;2023-03-01T01:41:41;-4.10;99.90
69031;DHT22;56083;48.774;8.942;2023-03-01T01:47:05;-4.10;99.90
69031;DHT22;56083;48.774;8.942;2023-03-01T01:52:07;-4.10;99.90
69031;DHT22;56083;48.774;8.942;2023-03-01T01:54:50;-4.00;99.90
69031;DHT22;56083;48.774;8.942;2023-03-01T01:57:23;-4.10;99.90
69031;DHT22;56083;48.774;8.942;2023-03-01T01:59:51;-4.10;99.90
69031;DHT22;56083;48.774;8.942;2023-03-01T02:02:18;-4.10;99.90
69031;DHT22;56083;48.774;8.942;2023-03-01T02:04:46;-4.20;99.90
69031;DHT22;56083;48.774;8.942;2023-03-01T02:07:19;-4.20;99.90
69031;DHT22;56083;48.774;8.942;2023-03-01T02:09:48;-4.10;99.90
69031;DHT22;56083;48.774;8.942;2023-03-01T02:12:17;-4.20;99.90
69031;DHT22;56083;48.774;8.942;2023-03-01T02:14:44;-4.20;99.90
69031;DHT22;56083;48.774;8.942;2023-03-01T02:17:11;-4.20;99.90
69031;DHT22;56083;48.774;8.942;2023-03-01T02:22:16;-4.20;99.90
69031;DHT22;56083;48.774;8.942;2023-03-01T02:25:19;-4.20;99.90
69031;DHT22;56083;48.774;8.942;2023-03-01T02:28:02;-4.20;99.90
69031;DHT22;56083;48.774;8.942;2023-03-01T02:30:31;-4.20;99.90
69031;DHT22;56083;48.774;8.942;2023-03-01T02:32:59;-4.10;99.90
69031;DHT22;56083;48.774;8.942;2023-03-01T02:35:32;-4.00;99.90
69031;DHT22;56083;48.774;8.942;2023-03-01T02:37:59;-3.90;99.90
69031;DHT22;56083;48.774;8.942;2023-03-01T02:40:30;-3.80;99.90
69031;DHT22;56083;48.774;8.942;2023-03-01T02:42:58;-3.70;99.90
69031;DHT22;56083;48.774;8.942;2023-03-01T02:45:25;-3.50;99.90
69031;DHT22;56083;48.774;8.942;2023-03-01T02:47:54;-3.40;99.90
69031;DHT22;56083;48.774;8.942;2023-03-01T02:55:20;-3.00;99.90
69031;DHT22;56083;48.774;8.942;2023-03-01T02:57:46;-2.90;99.90
69031;DHT22;56083;48.774;8.942;2023-03-01T03:00:30;-2.90;99.90
69031;DHT22;56083;48.774;8.942;2023-03-01T03:02:58;-2.80;99.90
69031;DHT22;56083;48.774;8.942;2023-03-01T03:05:27;-2.70;99.90
69031;DHT22;56083;48.774;8.942;2023-03-01T03:07:53;-2.70;99.90
69031;DHT22;56083;48.774;8.942;2023-03-01T03:10:25;-2.60;99.90
69031;DHT22;56083;48.774;8.942;2023-03-01T03:12:53;-2.60;99.90
69031;DHT22;56083;48.774;8.942;2023-03-01T03:15:20;-2.60;99.90
69031;DHT22;56083;48.774;8.942;2023-03-01T03:17:46;-2.60;99.90
69031;DHT22;56083;48.774;8.942;2023-03-01T03:20:14;-2.50;99.90
69031;DHT22;56083;48.774;8.942;2023-03-01T03:22:48;-2.50;99.90
69031;DHT22;56083;48.774;8.942;2023-03-01T03:25:15;-2.50;99.90
69031;DHT22;56083;48.774;8.942;2023-03-01T03:27:42;-2.40;99.90
69031;DHT22;56083;48.774;8.942;2023-03-01T03:30:11;-2.40;99.90
69031;DHT22;56083;48.774;8.942;2023-03-01T03:32:43;-2.40;99.90
69031;DHT22;56083;48.774;8.942;2023-03-01T03:35:25;-2.40;99.90
69031;DHT22;56083;48.774;8.942;2023-03-01T03:37:51;-2.30;99.90
69031;DHT22;56083;48.774;8.942;2023-03-01T03:40:36;-2.30;99.90
69031;DHT22;56083;48.774;8.942;2023-03-01T03:43:03;-2.30;99.90
69031;DHT22;56083;48.774;8.942;2023-03-01T03:45:30;-2.20;99.90
69031;DHT22;56083;48.774;8.942;2023-03-01T03:47:58;-2.10;99.90
69031;DHT22;56083;48.774;8.942;2023-03-01T03:50:24;-2.10;99.90
69031;DHT22;56083;48.774;8.942;2023-03-01T03:52:50;-2.00;99.90
69031;DHT22;56083;48.774;8.942;2023-03-01T03:55:16;-2.00;99.90
69031;DHT22;56083;48.774;8.942;2023-03-01T03:57:45;-1.90;99.90
69031;DHT22;56083;48.774;8.942;2023-03-01T04:00:19;-1.90;99.90
69031;DHT22;56083;48.774;8.942;2023-03-01T04:02:45;-1.90;99.90
69031;DHT22;56083;48.774;8.942;2023-03-01T04:05:13;-1.80;99.90
69031;DHT22;56083;48.774;8.942;2023-03-01T04:07:40;-1.80;99.90
69031;DHT22;56083;48.774;8.942;2023-03-01T04:10:08;-1.80;99.90
69031;DHT22;56083;48.774;8.942;2023-03-01T04:12:35;-1.70;99.90
69031;DHT22;56083;48.774;8.942;2023-03-01T04:15:05;-1.70;99.90
69031;DHT22;56083;48.774;8.942;2023-03-01T04:17:42;-1.70;99.90
69031;DHT22;56083;48.774;8.942;2023-03-01T04:20:14;-1.70;99.90
69031;DHT22;56083;48.774;8.942;2023-03-01T04:22:43;-1.70;99.90
69031;DHT22;56083;48.774;8.942;2023-03-01T04:25:12;-1.70;99.90
69031;DHT22;56083;48.774;8.942;2023-03-01T04:27:40;-1.60;99.90
69031;DHT22;56083;48.774;8.942;2023-03-01T04:30:08;-1.60;99.90
69031;DHT22;56083;48.774;8.942;2023-03-01T04:32:33;-1.60;99.90
69031;DHT22;56083;48.774;8.942;2023-03-01T04:34:59;-1.60;99.90
69031;DHT22;56083;48.774;8.942;2023-03-01T04:37:25;-1.60;99.90
69031;DHT22;56083;48.774;8.942;2023-03-01T04:39:51;-1.60;99.90
69031;DHT22;56083;48.774;8.942;2023-03-01T04:42:17;-1.60;99.90
69031;DHT22;56083;48.774;8.942;2023-03-01T04:44:43;-1.60;99.90
69031;DHT22;56083;48.774;8.942;2023-03-01T04:47:09;-1.60;99.90
69031;DHT22;56083;48.774;8.942;2023-03-01T04:49:35;-1.60;99.90
69031;DHT22;56083;48.774;8.942;2023-03-01T04:52:01;-1.60;99.90
69031;DHT22;56083;48.774;8.942;2023-03-01T04:54:33;-1.50;99.90
69031;DHT22;56083;48.774;8.942;2023-03-01T04:57:00;-1.60;99.90
69031;DHT22;56083;48.774;8.942;2023-03-01T04:59:26;-1.60;99.90
69031;DHT22;56083;48.774;8.942;2023-03-01T05:01:52;-1.60;99.90
69031;DHT22;56083;48.774;8.942;2023-03-01T05:04:21;-1.60;99.90
69031;DHT22;56083;48.774;8.942;2023-03-01T05:06:46;-1.60;99.90
69031;DHT22;56083;48.774;8.942;2023-03-01T05:09:12;-1.60;99.90
69031;DHT22;56083;48.774;8.942;2023-03-01T05:11:38;-1.60;99.90
69031;DHT22;56083;48.774;8.942;2023-03-01T05:14:05;-1.60;99.90
69031;DHT22;56083;48.774;8.942;2023-03-01T05:16:31;-1.60;99.90
69031;DHT22;56083;48.774;8.942;2023-03-01T05:18:58;-1.50;99.90
69031;DHT22;56083;48.774;8.942;2023-03-01T05:21:24;-1.50;99.90
69031;DHT22;56083;48.774;8.942;2023-03-01T05:23:50;-1.50;99.90
69031;DHT22;56083;48.774;8.942;2023-03-01T05:26:18;-1.50;99.90
69031;DHT22;56083;48.774;8.942;2023-03-01T05:28:44;-1.50;99.90
69031;DHT22;56083;48.774;8.942;2023-03-01T05:31:10;-1.50;99.90
69031;DHT22;56083;48.774;8.942;2023-03-01T05:33:37;-1.40;99.90
69031;DHT22;56083;48.774;8.942;2023-03-01T05:36:04;-1.50;99.90
69031;DHT22;56083;48.774;8.942;2023-03-01T05:38:29;-1.50;99.90
69031;DHT22;56083;48.774;8.942;2023-03-01T05:40:55;-1.50;99.90
69031;DHT22;56083;48.774;8.942;2023-03-01T05:43:21;-1.40;99.90
69031;DHT22;56083;48.774;8.942;2023-03-01T05:45:46;-1.40;99.90
69031;DHT22;56083;48.774;8.942;2023-03-01T05:48:13;-1.50;99.90
69031;DHT22;56083;48.774;8.942;2023-03-01T05:50:43;-1.40;99.90
69031;DHT22;56083;48.774;8.942;2023-03-01T05:53:15;-1.40;99.90
69031;DHT22;56083;48.774;8.942;2023-03-01T05:55:41;-1.40;99.90
69031;DHT22;56083;48.774;8.942;2023-03-01T05:58:11;-1.40;99.90
69031;DHT22;56083;48.774;8.942;2023-03-01T06:00:36;-1.40;99.90
69031;DHT22;56083;48.774;8.942;2023-03-01T06:03:02;-1.40;99.90
69031;DHT22;56083;48.774;8.942;2023-03-01T06:05:29;-1.40;99.90
69031;DHT22;56083;48.774;8.942;2023-03-01T06:07:56;-1.40;99.90
69031;DHT22;56083;48.774;8.942;2023-03-01T06:10:24;-1.40;99.90
69031;DHT22;56083;48.774;8.942;2023-03-01T06:12:49;-1.40;99.90
69031;DHT22;56083;48.774;8.942;2023-03-01T06:15:16;-1.40;99.90
69031;DHT22;56083;48.774;8.942;2023-03-01T06:17:44;-1.40;99.90
69031;DHT22;56083;48.774;8.942;2023-03-01T06:20:28;-1.40;99.90
69031;DHT22;56083;48.774;8.942;2023-03-01T06:22:54;-1.40;99.90
69031;DHT22;56083;48.774;8.942;2023-03-01T06:25:22;-1.40;99.90
69031;DHT22;56083;48.774;8.942;2023-03-01T06:27:48;-1.40;99.90
69031;DHT22;56083;48.774;8.942;2023-03-01T06:30:16;-1.40;99.90
69031;DHT22;56083;48.774;8.942;2023-03-01T06:32:42;-1.40;99.90
69031;DHT22;56083;48.774;8.942;2023-03-01T06:35:13;-1.40;99.90
69031;DHT22;56083;48.774;8.942;2023-03-01T06:37:40;-1.40;99.90
69031;DHT22;56083;48.774;8.942;2023-03-01T06:40:08;-1.40;99.90
69031;DHT22;56083;48.774;8.942;2023-03-01T06:42:37;-1.40;99.90
69031;DHT22;56083;48.774;8.942;2023-03-01T06:45:03;-1.30;99.90
69031;DHT22;56083;48.774;8.942;2023-03-01T06:47:29;-1.30;99.90
69031;DHT22;56083;48.774;8.942;2023-03-01T06:49:55;-1.30;99.90
69031;DHT22;56083;48.774;8.942;2023-03-01T06:52:20;-1.30;99.90
69031;DHT22;56083;48.774;8.942;2023-03-01T06:54:46;-1.30;99.90
69031;DHT22;56083;48.774;8.942;2023-03-01T06:57:11;-1.20;99.90
69031;DHT22;56083;48.774;8.942;2023-03-01T06:59:37;-1.20;99.90
69031;DHT22;56083;48.774;8.942;2023-03-01T07:02:03;-1.10;99.90
69031;DHT22;56083;48.774;8.942;2023-03-01T07:04:28;-1.10;99.90
69031;DHT22;56083;48.774;8.942;2023-03-01T07:06:55;-1.00;99.90
69031;DHT22;56083;48.774;8.942;2023-03-01T07:09:24;-0.90;99.90
69031;DHT22;56083;48.774;8.942;2023-03-01T07:11:50;-0.90;99.90
69031;DHT22;56083;48.774;8.942;2023-03-01T07:14:16;-0.80;99.90
69031;DHT22;56083;48.774;8.942;2023-03-01T07:16:41;-0.80;99.90
69031;DHT22;56083;48.774;8.942;2023-03-01T07:19:07;-0.80;99.90
69031;DHT22;56083;48.774;8.942;2023-03-01T07:21:33;-0.70;99.90
69031;DHT22;56083;48.774;8.942;2023-03-01T07:23:58;-0.30;99.90
69031;DHT22;56083;48.774;8.942;2023-03-01T07:26:24;0.40;99.90
69031;DHT22;56083;48.774;8.942;2023-03-01T07:28:50;1.00;99.90
69031;DHT22;56083;48.774;8.942;2023-03-01T07:31:15;1.80;99.90
69031;DHT22;56083;48.774;8.942;2023-03-01T07:33:41;2.30;99.90
69031;DHT22;56083;48.774;8.942;2023-03-01T07:36:07;2.70;99.90
69031;DHT22;56083;48.774;8.942;2023-03-01T07:38:33;3.30;99.90
69031;DHT22;56083;48.774;8.942;2023-03-01T07:41:02;3.60;99.90
69031;DHT22;56083;48.774;8.942;2023-03-01T07:43:29;3.90;99.90
69031;DHT22;56083;48.774;8.942;2023-03-01T07:45:58;4.20;99.90
69031;DHT22;56083;48.774;8.942;2023-03-01T07:48:24;4.50;99.90
69031;DHT22;56083;48.774;8.942;2023-03-01T07:50:50;5.10;99.90
69031;DHT22;56083;48.774;8.942;2023-03-01T07:53:16;5.30;99.90
69031;DHT22;56083;48.774;8.942;2023-03-01T07:55:41;5.20;99.90
69031;DHT22;56083;48.774;8.942;2023-03-01T07:58:07;5.30;99.90
69031;DHT22;56083;48.774;8.942;2023-03-01T08:00:32;5.20;99.90
69031;DHT22;56083;48.774;8.942;2023-03-01T08:02:59;5.40;99.90
69031;DHT22;56083;48.774;8.942;2023-03-01T08:05:26;5.80;99.90
69031;DHT22;56083;48.774;8.942;2023-03-01T08:07:52;6.20;99.90
69031;DHT22;56083;48.774;8.942;2023-03-01T08:10:18;6.20;99.90
69031;DHT22;56083;48.774;8.942;2023-03-01T08:12:44;7.00;99.90
69031;DHT22;56083;48.774;8.942;2023-03-01T08:15:10;7.10;99.90
69031;DHT22;56083;48.774;8.942;2023-03-01T08:17:36;7.00;99.90
69031;DHT22;56083;48.774;8.942;2023-03-01T08:20:03;7.50;99.90
69031;DHT22;56083;48.774;8.942;2023-03-01T08:22:31;8.00;99.90
69031;DHT22;56083;48.774;8.942;2023-03-01T08:24:57;7.60;99.90
69031;DHT22;56083;48.774;8.942;2023-03-01T08:27:22;7.70;99.90
69031;DHT22;56083;48.774;8.942;2023-03-01T08:29:48;7.80;99.90
69031;DHT22;56083;48.774;8.942;2023-03-01T08:32:13;8.10;99.90
69031;DHT22;56083;48.774;8.942;2023-03-01T08:34:39;7.80;99.90
69031;DHT22;56083;48.774;8.942;2023-03-01T08:37:05;7.70;99.90
69031;DHT22;56083;48.774;8.942;2023-03-01T08:39:30;7.80;99.90
69031;DHT22;56083;48.774;8.942;2023-03-01T08:41:56;8.30;99.90
69031;DHT22;56083;48.774;8.942;2023-03-01T08:44:22;8.40;99.90
69031;DHT22;56083;48.774;8.942;2023-03-01T08:46:48;8.80;99.90
69031;DHT22;56083;48.774;8.942;2023-03-01T08:49:19;9.20;99.90
69031;DHT22;56083;48.774;8.942;2023-03-01T08:51:46;9.30;99.90
69031;DHT22;56083;48.774;8.942;2023-03-01T08:54:17;9.60;99.90
69031;DHT22;56083;48.774;8.942;2023-03-01T08:56:43;9.70;99.90
69031;DHT22;56083;48.774;8.942;2023-03-01T08:59:10;10.20;99.90
69031;DHT22;56083;48.774;8.942;2023-03-01T09:01:36;11.00;99.90
69031;DHT22;56083;48.774;8.942;2023-03-01T09:04:02;11.20;99.90
69031;DHT22;56083;48.774;8.942;2023-03-01T09:06:31;11.10;99.90
69031;DHT22;56083;48.774;8.942;2023-03-01T09:08:58;11.20;99.90
69031;DHT22;56083;48.774;8.942;2023-03-01T09:11:24;11.10;99.90
69031;DHT22;56083;48.774;8.942;2023-03-01T09:13:50;10.90;99.90
69031;DHT22;56083;48.774;8.942;2023-03-01T09:16:18;11.90;99.20
69031;DHT22;56083;48.774;8.942;2023-03-01T09:18:45;12.50;96.70
69031;DHT22;56083;48.774;8.942;2023-03-01T09:21:15;13.20;95.70
69031;DHT22;56083;48.774;8.942;2023-03-01T09:23:44;13.30;94.10
69031;DHT22;56083;48.774;8.942;2023-03-01T09:26:12;13.20;92.70
69031;DHT22;56083;48.774;8.942;2023-03-01T09:28:39;12.70;92.20
69031;DHT22;56083;48.774;8.942;2023-03-01T09:31:06;13.30;92.00
69031;DHT22;56083;48.774;8.942;2023-03-01T09:33:33;12.90;91.90
69031;DHT22;56083;48.774;8.942;2023-03-01T09:36:03;13.20;90.30
69031;DHT22;56083;48.774;8.942;2023-03-01T09:38:30;13.60;89.10
69031;DHT22;56083;48.774;8.942;2023-03-01T09:40:56;13.60;89.20
69031;DHT22;56083;48.774;8.942;2023-03-01T09:44:08;13.00;88.40
69031;DHT22;56083;48.774;8.942;2023-03-01T09:46:10;12.70;89.60
69031;DHT22;56083;48.774;8.942;2023-03-01T09:48:54;13.40;87.50
69031;DHT22;56083;48.774;8.942;2023-03-01T09:51:27;14.30;84.40
69031;DHT22;56083;48.774;8.942;2023-03-01T09:53:55;14.60;82.00
69031;DHT22;56083;48.774;8.942;2023-03-01T10:01:59;15.90;75.60
69031;DHT22;56083;48.774;8.942;2023-03-01T10:04:44;16.00;73.50
69031;DHT22;56083;48.774;8.942;2023-03-01T10:09:39;16.00;72.10
69031;DHT22;56083;48.774;8.942;2023-03-01T10:12:10;16.00;71.10
69031;DHT22;56083;48.774;8.942;2023-03-01T10:14:48;16.50;71.00
69031;DHT22;56083;48.774;8.942;2023-03-01T10:18:00;16.80;69.10
69031;DHT22;56083;48.774;8.942;2023-03-01T10:20:26;16.80;68.80
69031;DHT22;56083;48.774;8.942;2023-03-01T10:22:52;16.90;66.30
69031;DHT22;56083;48.774;8.942;2023-03-01T10:25:44;16.90;66.30
69031;DHT22;56083;48.774;8.942;2023-03-01T10:28:36;17.40;63.60
69031;DHT22;56083;48.774;8.942;2023-03-01T10:31:14;18.10;62.40
69031;DHT22;56083;48.774;8.942;2023-03-01T10:33:41;18.70;60.70
69031;DHT22;56083;48.774;8.942;2023-03-01T10:36:07;18.70;59.60
69031;DHT22;56083;48.774;8.942;2023-03-01T10:38:49;18.60;59.10
69031;DHT22;56083;48.774;8.942;2023-03-01T10:41:15;18.30;59.90
69031;DHT22;56083;48.774;8.942;2023-03-01T10:43:53;17.90;59.70
69031;DHT22;56083;48.774;8.942;2023-03-01T10:46:33;17.50;59.70
69031;DHT22;56083;48.774;8.942;2023-03-01T10:49:22;18.90;59.20
69031;DHT22;56083;48.774;8.942;2023-03-01T10:51:50;19.00;57.50
69031;DHT22;56083;48.774;8.942;2023-03-01T10:54:30;18.80;57.90
69031;DHT22;56083;48.774;8.942;2023-03-01T10:57:01;18.00;58.80
69031;DHT22;56083;48.774;8.942;2023-03-01T10:59:36;18.70;58.50
69031;DHT22;56083;48.774;8.942;2023-03-01T11:04:27;19.30;56.20
69031;DHT22;56083;48.774;8.942;2023-03-01T11:07:00;19.40;55.30
69031;DHT22;56083;48.774;8.942;2023-03-01T11:09:26;19.50;55.50
69031;DHT22;56083;48.774;8.942;2023-03-01T11:12:00;19.20;55.70
69031;DHT22;56083;48.774;8.942;2023-03-01T11:14:29;19.80;54.50
69031;DHT22;56083;48.774;8.942;2023-03-01T11:19:37;19.60;55.00
69031;DHT22;56083;48.774;8.942;2023-03-01T11:22:17;20.10;53.60
69031;DHT22;56083;48.774;8.942;2023-03-01T11:24:50;19.50;53.40
69031;DHT22;56083;48.774;8.942;2023-03-01T11:27:26;20.00;53.50
69031;DHT22;56083;48.774;8.942;2023-03-01T11:32:28;19.90;53.80
69031;DHT22;56083;48.774;8.942;2023-03-01T11:35:14;19.90;52.70
69031;DHT22;56083;48.774;8.942;2023-03-01T11:40:41;19.60;53.30
69031;DHT22;56083;48.774;8.942;2023-03-01T11:43:32;19.80;53.70
69031;DHT22;56083;48.774;8.942;2023-03-01T11:48:36;19.50;52.60
69031;DHT22;56083;48.774;8.942;2023-03-01T11:51:19;19.90;53.10
69031;DHT22;56083;48.774;8.942;2023-03-01T11:56:52;20.10;52.10
69031;DHT22;56083;48.774;8.942;2023-03-01T12:05:38;19.70;52.20
69031;DHT22;56083;48.774;8.942;2023-03-01T12:13:36;20.10;51.60
69031;DHT22;56083;48.774;8.942;2023-03-01T12:19:06;19.50;52.00
69031;DHT22;56083;48.774;8.942;2023-03-01T12:24:18;20.60;50.30
69031;DHT22;56083;48.774;8.942;2023-03-01T12:27:12;21.20;50.40
69031;DHT22;56083;48.774;8.942;2023-03-01T12:32:40;20.30;49.40
69031;DHT22;56083;48.774;8.942;2023-03-01T12:37:54;20.80;49.50
69031;DHT22;56083;48.774;8.942;2023-03-01T12:49:33;20.20;50.80
69031;DHT22;56083;48.774;8.942;2023-03-01T12:52:08;20.00;51.40
69031;DHT22;56083;48.774;8.942;2023-03-01T12:54:36;20.40;50.00
69031;DHT22;56083;48.774;8.942;2023-03-01T12:57:21;19.80;51.50
69031;DHT22;56083;48.774;8.942;2023-03-01T13:02:58;20.00;50.70
69031;DHT22;56083;48.774;8.942;2023-03-01T13:06:00;20.70;50.10
69031;DHT22;56083;48.774;8.942;2023-03-01T13:08:41;20.70;49.90
69031;DHT22;56083;48.774;8.942;2023-03-01T13:11:18;20.50;49.80
69031;DHT22;56083;48.774;8.942;2023-03-01T13:13:45;20.10;49.90
69031;DHT22;56083;48.774;8.942;2023-03-01T13:21:43;19.90;50.70
69031;DHT22;56083;48.774;8.942;2023-03-01T13:24:26;20.20;50.20
69031;DHT22;56083;48.774;8.942;2023-03-01T13:29:47;20.10;50.00
69031;DHT22;56083;48.774;8.942;2023-03-01T13:32:26;19.90;51.00
69031;DHT22;56083;48.774;8.942;2023-03-01T13:37:45;19.30;51.40
69031;DHT22;56083;48.774;8.942;2023-03-01T13:42:50;18.50;52.30
69031;DHT22;56083;48.774;8.942;2023-03-01T13:45:36;17.70;54.00
69031;DHT22;56083;48.774;8.942;2023-03-01T13:48:22;17.70;54.50
69031;DHT22;56083;48.774;8.942;2023-03-01T13:50:53;17.70;54.40
69031;DHT22;56083;48.774;8.942;2023-03-01T13:53:22;17.70;54.20
69031;DHT22;56083;48.774;8.942;2023-03-01T13:56:02;18.00;53.90
69031;DHT22;56083;48.774;8.942;2023-03-01T13:58:33;18.00;53.80
69031;DHT22;56083;48.774;8.942;2023-03-01T14:01:38;18.10;54.80
69031;DHT22;56083;48.774;8.942;2023-03-01T14:04:21;17.70;54.40
69031;DHT22;56083;48.774;8.942;2023-03-01T14:06:47;17.10;55.00
69031;DHT22;56083;48.774;8.942;2023-03-01T14:09:26;17.00;55.50
69031;DHT22;56083;48.774;8.942;2023-03-01T14:12:06;17.00;56.00
69031;DHT22;56083;48.774;8.942;2023-03-01T14:17:49;17.40;55.20
69031;DHT22;56083;48.774;8.942;2023-03-01T14:20:21;16.80;56.50
69031;DHT22;56083;48.774;8.942;2023-03-01T14:22:48;16.80;56.80
69031;DHT22;56083;48.774;8.942;2023-03-01T14:28:16;17.10;56.20
69031;DHT22;56083;48.774;8.942;2023-03-01T14:30:49;17.20;56.50
69031;DHT22;56083;48.774;8.942;2023-03-01T14:33:37;16.60;57.00
69031;DHT22;56083;48.774;8.942;2023-03-01T14:36:11;16.40;56.70
69031;DHT22;56083;48.774;8.942;2023-03-01T14:38:43;16.20;56.80
69031;DHT22;56083;48.774;8.942;2023-03-01T14:41:14;16.50;57.50
69031;DHT22;56083;48.774;8.942;2023-03-01T14:43:46;16.20;57.30
69031;DHT22;56083;48.774;8.942;2023-03-01T14:46:43;16.30;58.00
69031;DHT22;56083;48.774;8.942;2023-03-01T14:49:30;16.10;57.60
69031;DHT22;56083;48.774;8.942;2023-03-01T14:52:05;16.10;58.40
69031;DHT22;56083;48.774;8.942;2023-03-01T14:54:47;15.40;58.90
69031;DHT22;56083;48.774;8.942;2023-03-01T14:57:21;15.20;59.90
69031;DHT22;56083;48.774;8.942;2023-03-01T14:59:47;15.90;59.30
69031;DHT22;56083;48.774;8.942;2023-03-01T15:02:17;16.10;58.50
69031;DHT22;56083;48.774;8.942;2023-03-01T15:04:55;15.90;58.10
69031;DHT22;56083;48.774;8.942;2023-03-01T15:07:29;15.60;57.90
69031;DHT22;56083;48.774;8.942;2023-03-01T15:09:57;14.90;59.20
69031;DHT22;56083;48.774;8.942;2023-03-01T15:14:58;14.10;61.40
69031;DHT22;56083;48.774;8.942;2023-03-01T15:17:37;14.40;61.20
69031;DHT22;56083;48.774;8.942;2023-03-01T15:20:16;14.50;60.50
69031;DHT22;56083;48.774;8.942;2023-03-01T15:22:46;14.20;61.50
69031;DHT22;56083;48.774;8.942;2023-03-01T15:25:23;14.10;62.00
69031;DHT22;56083;48.774;8.942;2023-03-01T15:27:50;13.90;62.90
69031;DHT22;56083;48.774;8.942;2023-03-01T15:30:37;13.60;62.70
69031;DHT22;56083;48.774;8.942;2023-03-01T15:33:27;13.30;63.60
69031;DHT22;56083;48.774;8.942;2023-03-01T15:35:56;13.20;64.70
69031;DHT22;56083;48.774;8.942;2023-03-01T15:38:51;13.20;64.70
69031;DHT22;56083;48.774;8.942;2023-03-01T15:41:37;13.20;64.30
69031;DHT22;56083;48.774;8.942;2023-03-01T15:44:27;12.90;65.50
69031;DHT22;56083;48.774;8.942;2023-03-01T15:46:53;12.50;66.80
69031;DHT22;56083;48.774;8.942;2023-03-01T15:52:00;12.00;68.10
69031;DHT22;56083;48.774;8.942;2023-03-01T15:54:26;11.90;69.00
69031;DHT22;56083;48.774;8.942;2023-03-01T15:56:52;11.50;69.60
69031;DHT22;56083;48.774;8.942;2023-03-01T15:59:18;11.60;69.70
69031;DHT22;56083;48.774;8.942;2023-03-01T16:01:44;11.40;69.90
69031;DHT22;56083;48.774;8.942;2023-03-01T16:04:11;11.10;71.10
69031;DHT22;56083;48.774;8.942;2023-03-01T16:06:54;11.10;71.70
69031;DHT22;56083;48.774;8.942;2023-03-01T16:09:24;10.60;73.40
69031;DHT22;56083;48.774;8.942;2023-03-01T16:11:51;10.40;73.70
69031;DHT22;56083;48.774;8.942;2023-03-01T16:14:17;10.00;74.70
69031;DHT22;56083;48.774;8.942;2023-03-01T16:16:43;9.70;75.70
69031;DHT22;56083;48.774;8.942;2023-03-01T16:19:09;9.60;76.60
69031;DHT22;56083;48.774;8.942;2023-03-01T16:21:36;9.40;77.80
69031;DHT22;56083;48.774;8.942;2023-03-01T16:24:02;9.30;78.50
69031;DHT22;56083;48.774;8.942;2023-03-01T16:26:27;8.70;79.20
69031;DHT22;56083;48.774;8.942;2023-03-01T16:28:56;8.20;81.30
69031;DHT22;56083;48.774;8.942;2023-03-01T16:31:23;7.50;84.70
69031;DHT22;56083;48.774;8.942;2023-03-01T16:33:53;7.10;86.00
69031;DHT22;56083;48.774;8.942;2023-03-01T16:36:20;6.70;87.40
69031;DHT22;56083;48.774;8.942;2023-03-01T16:38:49;6.40;88.80
69031;DHT22;56083;48.774;8.942;2023-03-01T16:41:16;6.00;90.20
69031;DHT22;56083;48.774;8.942;2023-03-01T16:43:42;5.80;90.80
69031;DHT22;56083;48.774;8.942;2023-03-01T16:46:13;5.60;91.30
69031;DHT22;56083;48.774;8.942;2023-03-01T16:48:39;5.40;91.70
69031;DHT22;56083;48.774;8.942;2023-03-01T16:51:05;5.30;92.60
69031;DHT22;56083;48.774;8.942;2023-03-01T16:53:31;5.10;93.00
69031;DHT22;56083;48.774;8.942;2023-03-01T16:55:58;5.00;93.10
69031;DHT22;56083;48.774;8.942;2023-03-01T16:58:24;4.90;93.50
69031;DHT22;56083;48.774;8.942;2023-03-01T17:00:54;4.80;93.90
69031;DHT22;56083;48.774;8.942;2023-03-01T17:03:24;4.70;94.70
69031;DHT22;56083;48.774;8.942;2023-03-01T17:05:51;4.50;94.90
69031;DHT22;56083;48.774;8.942;2023-03-01T17:08:17;4.40;95.50
69031;DHT22;56083;48.774;8.942;2023-03-01T17:10:43;4.30;96.10
69031;DHT22;56083;48.774;8.942;2023-03-01T17:13:09;4.20;96.60
69031;DHT22;56083;48.774;8.942;2023-03-01T17:15:38;4.00;97.30
69031;DHT22;56083;48.774;8.942;2023-03-01T17:18:04;3.90;98.30
69031;DHT22;56083;48.774;8.942;2023-03-01T17:20:30;3.80;99.00
69031;DHT22;56083;48.774;8.942;2023-03-01T17:22:55;3.70;99.90
69031;DHT22;56083;48.774;8.942;2023-03-01T17:25:21;3.60;99.90
69031;DHT22;56083;48.774;8.942;2023-03-01T17:27:47;3.60;99.90
69031;DHT22;56083;48.774;8.942;2023-03-01T17:30:13;3.50;99.90